Eagle — WBP2187 — position and weather

sailwx.info

Track history (hours):
 
Tides and Currents Weather Stations Pressure Air Temp Water Temp Dewpoint Dewpoint Depression Visibility Wind Speed Wind Dir Waves Ship Positions

Eagle

Owner: Harley Marine Services, INC, SEATTLE, WA. More information available from US FCC via Universal Licensing System and Coast Guard Vessel Documentation Center.

Last reported at 2017-Sep-19 16:44 UTC. Time now 2017-Sep-19 17:00 UTC.
Position N 33°45' W 118°13'.

Length 32 m; draft 4.2 m.

Type: Towing. MMSI: 366978690.

Date/timePositionNaut miles runAvg speedWind from/ knotsBaromVisibWave heightAir tempDewpointWater temp
2017-Sep-19 16:44N 33°45' W 118°13'0 0.0
2017-Sep-19 16:30N 33°45' W 118°13'0 0.0
2017-Sep-19 15:50N 33°45' W 118°13'0 0.0
2017-Sep-19 15:23N 33°45' W 118°13'0 0.0
2017-Sep-19 14:58N 33°45' W 118°13'3 3.1
2017-Sep-19 14:01N 33°43' W 118°15'0 6.8
2017-Sep-19 13:58N 33°43' W 118°15'1 2.7
2017-Sep-19 13:27N 33°44' W 118°16'0 0.0
2017-Sep-19 12:56N 33°44' W 118°16'0 0.0
2017-Sep-19 12:23N 33°44' W 118°16'0 0.0
2017-Sep-19 12:00N 33°44' W 118°16'0 0.0
2017-Sep-19 11:29N 33°44' W 118°16'0 0.0
2017-Sep-19 10:44N 33°44' W 118°16'0 0.0
2017-Sep-19 10:26N 33°44' W 118°16'0 0.0
2017-Sep-19 09:42N 33°44' W 118°16'0 0.0
2017-Sep-19 09:29N 33°44' W 118°16'0 0.0
2017-Sep-19 08:48N 33°44' W 118°16'0 0.0
2017-Sep-19 08:30N 33°44' W 118°16'0 0.0
2017-Sep-19 06:55N 33°44' W 118°16'0 0.0
2017-Sep-19 06:28N 33°44' W 118°16'0 0.0
2017-Sep-19 05:56N 33°44' W 118°16'0 0.0
2017-Sep-19 05:30N 33°44' W 118°16'0 0.0
2017-Sep-19 04:45N 33°44' W 118°16'0 0.0
2017-Sep-19 04:30N 33°44' W 118°16'0 0.0
2017-Sep-19 03:58N 33°44' W 118°16'0 0.0
2017-Sep-19 03:23N 33°44' W 118°16'0 0.0
2017-Sep-19 03:00N 33°44' W 118°16'0 0.0
2017-Sep-19 02:13N 33°44' W 118°16'0 0.0
2017-Sep-19 01:46N 33°44' W 118°16'0 0.0
2017-Sep-19 01:12N 33°44' W 118°16'0 0.0
2017-Sep-19 00:49N 33°44' W 118°16'0 0.0
2017-Sep-19 00:30N 33°44' W 118°16'0 0.0
2017-Sep-18 23:59N 33°44' W 118°16'0 0.0
2017-Sep-18 23:29N 33°44' W 118°16'0 0.0
2017-Sep-18 23:00N 33°44' W 118°16'0 0.0
2017-Sep-18 22:29N 33°44' W 118°16'0 0.0
2017-Sep-18 21:59N 33°44' W 118°16'0 0.0
2017-Sep-18 21:27N 33°44' W 118°16'0 0.0
2017-Sep-18 20:59N 33°44' W 118°16'0 0.0
2017-Sep-18 20:23N 33°44' W 118°16'0 0.0
2017-Sep-18 19:56N 33°44' W 118°16'0 0.0
2017-Sep-18 19:23N 33°44' W 118°16'0 0.0
2017-Sep-18 18:56N 33°44' W 118°16'0 0.0
2017-Sep-18 18:27N 33°44' W 118°16'0 0.0
2017-Sep-18 17:50N 33°44' W 118°16'0 0.0
2017-Sep-18 17:30N 33°44' W 118°16'0 0.0
2017-Sep-18 16:58N 33°44' W 118°16'0 0.0
2017-Sep-18 16:24N 33°44' W 118°16'0 0.0
2017-Sep-18 15:10N 33°44' W 118°16'0 0.0
2017-Sep-18 14:59N 33°44' W 118°16'0 0.0
2017-Sep-18 14:27N 33°44' W 118°16'0 0.0
2017-Sep-18 13:49N 33°44' W 118°16'0 0.0
2017-Sep-18 13:23N 33°44' W 118°16'0 0.0
2017-Sep-18 12:50N 33°44' W 118°16'0 0.0
2017-Sep-18 12:27N 33°44' W 118°16'0 0.0
2017-Sep-18 11:38N 33°44' W 118°16'0 0.0
2017-Sep-18 11:15N 33°44' W 118°16'0 0.0
2017-Sep-18 09:42N 33°44' W 118°16'0 0.0
2017-Sep-18 09:14N 33°44' W 118°16'0 0.0
2017-Sep-18 08:47N 33°44' W 118°16'0 0.0
2017-Sep-18 08:26N 33°44' W 118°16'0 0.0
2017-Sep-18 07:46N 33°44' W 118°16'0 0.0
2017-Sep-18 07:30N 33°44' W 118°16'0 0.0
2017-Sep-18 06:57N 33°44' W 118°16'0 0.0
2017-Sep-18 06:30N 33°44' W 118°16'0 0.1
2017-Sep-18 04:58N 33°44' W 118°17'2 3.9
2017-Sep-18 04:29N 33°46' W 118°16'0 0.0
2017-Sep-18 04:00N 33°46' W 118°16'0 0.0
2017-Sep-18 03:29N 33°46' W 118°16'0 0.0
2017-Sep-18 02:49N 33°46' W 118°16'0 0.0
2017-Sep-18 02:25N 33°46' W 118°16'0 0.0
2017-Sep-18 02:00N 33°46' W 118°16'0 0.0
2017-Sep-18 01:21N 33°46' W 118°16'0 0.0
2017-Sep-18 00:57N 33°46' W 118°16'0 0.0
2017-Sep-18 00:28N 33°46' W 118°16'0 0.0
2017-Sep-17 23:56N 33°46' W 118°16'0 0.0
2017-Sep-17 23:29N 33°46' W 118°16'0 0.0
2017-Sep-17 22:59N 33°46' W 118°16'0 0.0
2017-Sep-17 22:30N 33°46' W 118°16'0 0.0
2017-Sep-17 21:58N 33°46' W 118°16'0 0.0
2017-Sep-17 21:29N 33°46' W 118°16'0 0.0
2017-Sep-17 21:00N 33°46' W 118°16'0 0.0
2017-Sep-17 20:28N 33°46' W 118°16'0 0.0
2017-Sep-17 19:58N 33°46' W 118°16'0 0.0
2017-Sep-17 19:22N 33°46' W 118°16'0 0.0
2017-Sep-17 18:58N 33°46' W 118°16'0 0.0
2017-Sep-17 18:27N 33°46' W 118°16'0 0.0
2017-Sep-17 17:59N 33°46' W 118°16'0 0.0
2017-Sep-17 17:24N 33°46' W 118°16'0 0.0
2017-Sep-17 16:52N 33°46' W 118°16'0 0.0
2017-Sep-17 15:43N 33°46' W 118°16'0 0.0
2017-Sep-17 14:39N 33°46' W 118°16'0 0.0
2017-Sep-17 14:10N 33°46' W 118°16'0 0.0
2017-Sep-17 12:01N 33°46' W 118°16'0 0.0
2017-Sep-17 11:42N 33°46' W 118°16'0 0.0
2017-Sep-17 11:26N 33°46' W 118°16'0 0.0
2017-Sep-17 10:20N 33°46' W 118°16'0 0.0
2017-Sep-17 09:55N 33°46' W 118°16'0 0.0
2017-Sep-17 09:29N 33°46' W 118°16'0 0.0
2017-Sep-17 08:06N 33°46' W 118°16'0 0.0
2017-Sep-17 07:57N 33°46' W 118°16'0 0.0
2017-Sep-17 07:24N 33°46' W 118°16'0 0.0
2017-Sep-17 06:23N 33°46' W 118°16'0 0.0
2017-Sep-17 05:04N 33°46' W 118°16'0 0.0
2017-Sep-17 04:56N 33°46' W 118°16'0 0.0
2017-Sep-17 04:19N 33°46' W 118°16'0 0.0
2017-Sep-17 03:59N 33°46' W 118°16'0 0.0
2017-Sep-17 03:26N 33°46' W 118°16'0 0.0
2017-Sep-17 02:59N 33°46' W 118°16'0 0.0
2017-Sep-17 02:30N 33°46' W 118°16'0 0.0
2017-Sep-17 01:58N 33°46' W 118°16'0 0.0
2017-Sep-17 01:30N 33°46' W 118°16'0 0.0
2017-Sep-17 00:58N 33°46' W 118°16'0 0.0
2017-Sep-17 00:25N 33°46' W 118°16'0 0.0
2017-Sep-16 23:55N 33°46' W 118°16'0 0.0
2017-Sep-16 23:30N 33°46' W 118°16'0 0.0
2017-Sep-16 23:00N 33°46' W 118°16'0 0.0
2017-Sep-16 22:26N 33°46' W 118°16'0 0.0
2017-Sep-16 21:59N 33°46' W 118°16'0 0.0
2017-Sep-16 21:30N 33°46' W 118°16'0 0.0
2017-Sep-16 21:00N 33°46' W 118°16'0 0.0
2017-Sep-16 20:30N 33°46' W 118°16'0 0.0
2017-Sep-16 20:00N 33°46' W 118°16'0 0.0
2017-Sep-16 19:30N 33°46' W 118°16'0 0.0
2017-Sep-16 19:00N 33°46' W 118°16'0 0.0
2017-Sep-16 18:27N 33°46' W 118°16'0 0.0
2017-Sep-16 17:59N 33°46' W 118°16'0 0.0
2017-Sep-16 17:19N 33°46' W 118°16'0 0.0
2017-Sep-16 16:58N 33°46' W 118°16'0 0.0
2017-Sep-16 16:13N 33°46' W 118°16'0 0.0
2017-Sep-16 15:52N 33°46' W 118°16'0 0.0
2017-Sep-16 15:24N 33°46' W 118°16'0 0.0
2017-Sep-16 13:59N 33°46' W 118°16'0 0.0
2017-Sep-16 13:29N 33°46' W 118°16'0 0.0
2017-Sep-16 12:52N 33°46' W 118°16'0 0.0
2017-Sep-16 12:16N 33°46' W 118°16'0 0.0
2017-Sep-16 11:50N 33°46' W 118°16'0 0.0
2017-Sep-16 11:18N 33°46' W 118°16'0 0.0
2017-Sep-16 10:26N 33°46' W 118°16'0 0.0
2017-Sep-16 09:55N 33°46' W 118°16'0 0.0
2017-Sep-16 09:29N 33°46' W 118°16'0 0.0
2017-Sep-16 08:56N 33°46' W 118°16'0 0.0
2017-Sep-16 08:16N 33°46' W 118°16'0 0.0
2017-Sep-16 07:57N 33°46' W 118°16'0 0.0
2017-Sep-16 07:26N 33°46' W 118°16'0 0.0
2017-Sep-16 06:59N 33°46' W 118°16'0 0.0
2017-Sep-16 06:24N 33°46' W 118°16'0 0.0
2017-Sep-16 05:59N 33°46' W 118°16'0 0.0
2017-Sep-16 05:29N 33°46' W 118°16'0 0.0
2017-Sep-16 04:57N 33°46' W 118°16'0 0.0
2017-Sep-16 04:30N 33°46' W 118°16'0 0.0
2017-Sep-16 04:00N 33°46' W 118°16'0 0.0
2017-Sep-16 03:30N 33°46' W 118°16'0 0.0
2017-Sep-16 02:58N 33°46' W 118°16'0 0.0
2017-Sep-16 02:28N 33°46' W 118°16'0 0.0
2017-Sep-16 02:00N 33°46' W 118°16'0 0.0
2017-Sep-16 01:29N 33°46' W 118°16'0 0.0
2017-Sep-16 00:57N 33°46' W 118°16'0 0.0
2017-Sep-16 00:28N 33°46' W 118°16'0 0.0
2017-Sep-15 23:56N 33°46' W 118°16'0 0.0
2017-Sep-15 23:30N 33°46' W 118°16'0 0.0
2017-Sep-15 22:59N 33°46' W 118°16'0 0.0
2017-Sep-15 22:30N 33°46' W 118°16'0 0.0
2017-Sep-15 21:57N 33°46' W 118°16'0 0.0
2017-Sep-15 21:30N 33°46' W 118°16'0 0.0
2017-Sep-15 21:00N 33°46' W 118°16'0 0.0
2017-Sep-15 20:29N 33°46' W 118°16'0 0.0
2017-Sep-15 19:59N 33°46' W 118°16'0 0.0
2017-Sep-15 19:26N 33°46' W 118°16'0 0.0
2017-Sep-15 18:55N 33°46' W 118°16'0 0.0
2017-Sep-15 18:30N 33°46' W 118°16'0 0.0
2017-Sep-15 17:59N 33°46' W 118°16'0 0.0
2017-Sep-15 17:27N 33°46' W 118°16'0 0.0
2017-Sep-15 16:55N 33°46' W 118°16'0 0.0
2017-Sep-15 16:26N 33°46' W 118°16'0 0.0
2017-Sep-15 15:33N 33°46' W 118°16'0 0.1
2017-Sep-15 15:30N 33°46' W 118°16'0 0.0
2017-Sep-15 14:56N 33°46' W 118°16'0 0.0
2017-Sep-15 14:25N 33°46' W 118°16'0 0.0
2017-Sep-15 13:50N 33°46' W 118°16'0 0.0
2017-Sep-15 13:27N 33°46' W 118°16'0 0.0
2017-Sep-15 12:51N 33°46' W 118°16'0 0.0
2017-Sep-15 12:25N 33°46' W 118°16'0 0.0
2017-Sep-15 11:55N 33°46' W 118°16'0 0.0
2017-Sep-15 11:30N 33°46' W 118°16'0 0.0
2017-Sep-15 10:57N 33°46' W 118°16'0 0.0
2017-Sep-15 10:22N 33°46' W 118°16'0 0.0
2017-Sep-15 09:54N 33°46' W 118°16'0 0.0
2017-Sep-15 09:25N 33°46' W 118°16'0 0.0
2017-Sep-15 09:00N 33°46' W 118°16'0 0.0
2017-Sep-15 08:28N 33°46' W 118°16'0 0.0
2017-Sep-15 07:56N 33°46' W 118°16'0 0.0
2017-Sep-15 07:30N 33°46' W 118°16'0 0.0
2017-Sep-15 06:51N 33°46' W 118°16'0 0.0
2017-Sep-15 06:26N 33°46' W 118°16'0 0.0
2017-Sep-15 06:00N 33°46' W 118°16'0 0.0
2017-Sep-15 05:27N 33°46' W 118°16'0 0.0
2017-Sep-15 05:00N 33°46' W 118°16'0 0.0
2017-Sep-15 04:28N 33°46' W 118°16'0 0.0
2017-Sep-15 04:00N 33°46' W 118°16'0 0.0
2017-Sep-15 03:29N 33°46' W 118°16'0 0.0
2017-Sep-15 02:53N 33°46' W 118°16'0 0.3
2017-Sep-15 02:29N 33°46' W 118°16'1 2.5
2017-Sep-15 01:59N 33°45' W 118°16'1 2.9
2017-Sep-15 01:30N 33°43' W 118°16'0 0.7
2017-Sep-15 00:59N 33°44' W 118°16'0 0.3
2017-Sep-15 00:28N 33°44' W 118°16'0 0.0
2017-Sep-14 23:56N 33°44' W 118°16'0 0.0
2017-Sep-14 23:30N 33°44' W 118°16'0 0.0
2017-Sep-14 22:59N 33°44' W 118°16'0 0.0
2017-Sep-14 22:30N 33°44' W 118°16'0 0.0
2017-Sep-14 21:56N 33°44' W 118°16'0 0.0
2017-Sep-14 21:30N 33°44' W 118°16'0 0.0
2017-Sep-14 20:56N 33°44' W 118°16'0 0.0
2017-Sep-14 20:30N 33°44' W 118°16'0 0.0
2017-Sep-14 19:52N 33°44' W 118°16'0 0.0
2017-Sep-14 19:28N 33°44' W 118°16'0 0.3
2017-Sep-14 18:59N 33°44' W 118°16'0 0.0
2017-Sep-14 18:24N 33°44' W 118°16'0 0.2
2017-Sep-14 18:00N 33°44' W 118°16'1 1.6
2017-Sep-14 17:30N 33°43' W 118°16'2 3.9
2017-Sep-14 17:00N 33°41' W 118°14'20 5.1
2017-Sep-14 12:58N 33°44' W 118°39'4 6.4
2017-Sep-14 12:22N 33°46' W 118°43'2 6.5
2017-Sep-14 12:01N 33°47' W 118°45'15 6.2
2017-Sep-14 09:32N 33°55' W 119°01'1 6.2
2017-Sep-14 09:26N 33°55' W 119°02'2 5.9
2017-Sep-14 09:01N 33°57' W 119°04'3 6.1
2017-Sep-14 08:30N 33°58' W 119°07'3 5.9
2017-Sep-14 08:00N 33°59' W 119°11'3 5.9
2017-Sep-14 07:30N 34°01' W 119°14'3 6.3
2017-Sep-14 07:00N 34°02' W 119°17'3 6.4
2017-Sep-14 06:30N 34°03' W 119°21'3 6.3
2017-Sep-14 06:01N 34°04' W 119°24'3 6.0
2017-Sep-14 05:29N 34°05' W 119°28'4 6.1
2017-Sep-14 04:51N 34°06' W 119°33'2 6.5
2017-Sep-14 04:31N 34°06' W 119°35'3 6.8
2017-Sep-14 04:00N 34°07' W 119°39'6 6.8
2017-Sep-14 03:07N 34°09' W 119°46'1 7.0
2017-Sep-14 02:56N 34°09' W 119°48'3 6.9
2017-Sep-14 02:30N 34°10' W 119°51'4 7.4
2017-Sep-14 01:56N 34°11' W 119°56'3 7.8
2017-Sep-14 01:30N 34°12' W 119°60'4 7.6
2017-Sep-14 01:00N 34°13' W 120°04'4 7.3
2017-Sep-14 00:30N 34°14' W 120°09'4 7.0
2017-Sep-14 00:00N 34°15' W 120°13'3 7.0
2017-Sep-13 23:31N 34°16' W 120°17'3 6.9
2017-Sep-13 23:00N 34°17' W 120°21'3 6.8
2017-Sep-13 22:30N 34°18' W 120°25'3 6.9
2017-Sep-13 22:01N 34°19' W 120°29'4 7.3
2017-Sep-13 21:28N 34°20' W 120°33'3 7.5
2017-Sep-13 21:01N 34°21' W 120°37'4 7.2
2017-Sep-13 20:31N 34°22' W 120°42'3 6.9
2017-Sep-13 20:00N 34°23' W 120°46'3 7.0
2017-Sep-13 19:31N 34°23' W 120°50'3 6.7
2017-Sep-13 19:00N 34°25' W 120°54'3 7.0
2017-Sep-13 18:31N 34°27' W 120°57'4 7.2
2017-Sep-13 18:00N 34°29' W 121°01'4 7.3
2017-Sep-13 17:31N 34°31' W 121°04'4 7.4
2017-Sep-13 17:00N 34°34' W 121°07'4 7.3
2017-Sep-13 16:31N 34°36' W 121°10'4 7.3
2017-Sep-13 16:00N 34°39' W 121°14'3 6.7
2017-Sep-13 15:31N 34°41' W 121°17'3 6.9
2017-Sep-13 15:00N 34°43' W 121°20'3 6.7
2017-Sep-13 14:30N 34°46' W 121°23'10 6.5
2017-Sep-13 12:57N 34°54' W 121°29'3 6.4
2017-Sep-13 12:31N 34°57' W 121°31'13 6.3
2017-Sep-13 10:28N 35°08' W 121°39'6 6.5
2017-Sep-13 09:31N 35°13' W 121°43'0 6.8
2017-Sep-13 09:29N 35°13' W 121°43'40 6.9
2017-Sep-13 03:39N 35°47' W 122°09'1 7.8
2017-Sep-13 03:30N 35°48' W 122°10'5 7.7
2017-Sep-13 02:48N 35°53' W 122°14'3 7.5
2017-Sep-13 02:27N 35°55' W 122°16'3 7.3
2017-Sep-13 02:00N 35°57' W 122°18'4 7.3
2017-Sep-13 01:30N 36°01' W 122°20'4 7.2
2017-Sep-13 01:00N 36°04' W 122°22'4 7.0
2017-Sep-13 00:31N 36°07' W 122°25'3 6.9
2017-Sep-13 00:01N 36°09' W 122°27'3 6.8
2017-Sep-12 23:30N 36°12' W 122°30'3 7.0
2017-Sep-12 23:01N 36°15' W 122°32'4 6.8
2017-Sep-12 22:25N 36°19' W 122°35'13 6.9
2017-Sep-12 20:33N 36°29' W 122°44'1 7.0
2017-Sep-12 20:26N 36°30' W 122°44'3 6.9
2017-Sep-12 20:00N 36°32' W 122°46'4 6.8
2017-Sep-12 19:29N 36°35' W 122°49'3 6.6
2017-Sep-12 19:01N 36°38' W 122°51'3 6.3
2017-Sep-12 18:31N 36°40' W 122°53'3 6.3
2017-Sep-12 18:00N 36°43' W 122°55'3 6.5
2017-Sep-12 17:30N 36°46' W 122°57'3 6.7
2017-Sep-12 17:00N 36°49' W 122°60'4 6.7
2017-Sep-12 16:28N 36°51' W 123°02'3 6.8
2017-Sep-12 16:01N 36°54' W 123°05'22 7.1
2017-Sep-12 12:57N 37°12' W 123°20'33 6.5
2017-Sep-12 07:53N 37°39' W 123°43'3 6.7
2017-Sep-12 07:30N 37°41' W 123°45'3 6.7
2017-Sep-12 07:01N 37°44' W 123°47'3 6.7
2017-Sep-12 06:30N 37°47' W 123°49'3 6.5
2017-Sep-12 05:58N 37°51' W 123°50'3 6.4
2017-Sep-12 05:31N 37°53' W 123°52'3 6.6
2017-Sep-12 05:00N 37°56' W 123°54'3 6.8
2017-Sep-12 04:30N 37°59' W 123°55'4 7.3
2017-Sep-12 04:00N 38°03' W 123°57'4 7.0
2017-Sep-12 03:22N 38°07' W 123°58'2 7.0
2017-Sep-12 03:00N 38°10' W 123°59'14 7.2
2017-Sep-12 01:04N 38°23' W 124°04'1 7.1
2017-Sep-12 01:00N 38°23' W 124°04'5 7.1
2017-Sep-12 00:22N 38°28' W 124°06'3 7.0
2017-Sep-12 00:00N 38°30' W 124°07'  
Track history (hours):
 
Tides and Currents Weather Stations Pressure Air Temp Water Temp Dewpoint Dewpoint Depression Visibility Wind Speed Wind Dir Waves Ship Positions

Eagle

Owner: Harley Marine Services, INC, SEATTLE, WA. More information available from US FCC via Universal Licensing System and Coast Guard Vessel Documentation Center.

Last reported at 2017-Sep-19 16:44 UTC. Time now 2017-Sep-19 17:00 UTC.
Position N 33°45' W 118°13'.

Length 32 m; draft 4.2 m.

Type: Towing. MMSI: 366978690.

Date/timePositionNaut miles runAvg speedWind from/ knotsBaromVisibWave heightAir tempDewpointWater temp
2017-Sep-19 16:44N 33°45' W 118°13'0 0.0
2017-Sep-19 16:30N 33°45' W 118°13'0 0.0
2017-Sep-19 15:50N 33°45' W 118°13'0 0.0
2017-Sep-19 15:23N 33°45' W 118°13'0 0.0
2017-Sep-19 14:58N 33°45' W 118°13'3 3.1
2017-Sep-19 14:01N 33°43' W 118°15'0 6.8
2017-Sep-19 13:58N 33°43' W 118°15'1 2.7
2017-Sep-19 13:27N 33°44' W 118°16'0 0.0
2017-Sep-19 12:56N 33°44' W 118°16'0 0.0
2017-Sep-19 12:23N 33°44' W 118°16'0 0.0
2017-Sep-19 12:00N 33°44' W 118°16'0 0.0
2017-Sep-19 11:29N 33°44' W 118°16'0 0.0
2017-Sep-19 10:44N 33°44' W 118°16'0 0.0
2017-Sep-19 10:26N 33°44' W 118°16'0 0.0
2017-Sep-19 09:42N 33°44' W 118°16'0 0.0
2017-Sep-19 09:29N 33°44' W 118°16'0 0.0
2017-Sep-19 08:48N 33°44' W 118°16'0 0.0
2017-Sep-19 08:30N 33°44' W 118°16'0 0.0
2017-Sep-19 06:55N 33°44' W 118°16'0 0.0
2017-Sep-19 06:28N 33°44' W 118°16'0 0.0
2017-Sep-19 05:56N 33°44' W 118°16'0 0.0
2017-Sep-19 05:30N 33°44' W 118°16'0 0.0
2017-Sep-19 04:45N 33°44' W 118°16'0 0.0
2017-Sep-19 04:30N 33°44' W 118°16'0 0.0
2017-Sep-19 03:58N 33°44' W 118°16'0 0.0
2017-Sep-19 03:23N 33°44' W 118°16'0 0.0
2017-Sep-19 03:00N 33°44' W 118°16'0 0.0
2017-Sep-19 02:13N 33°44' W 118°16'0 0.0
2017-Sep-19 01:46N 33°44' W 118°16'0 0.0
2017-Sep-19 01:12N 33°44' W 118°16'0 0.0
2017-Sep-19 00:49N 33°44' W 118°16'0 0.0
2017-Sep-19 00:30N 33°44' W 118°16'0 0.0
2017-Sep-18 23:59N 33°44' W 118°16'0 0.0
2017-Sep-18 23:29N 33°44' W 118°16'0 0.0
2017-Sep-18 23:00N 33°44' W 118°16'0 0.0
2017-Sep-18 22:29N 33°44' W 118°16'0 0.0
2017-Sep-18 21:59N 33°44' W 118°16'0 0.0
2017-Sep-18 21:27N 33°44' W 118°16'0 0.0
2017-Sep-18 20:59N 33°44' W 118°16'0 0.0
2017-Sep-18 20:23N 33°44' W 118°16'0 0.0
2017-Sep-18 19:56N 33°44' W 118°16'0 0.0
2017-Sep-18 19:23N 33°44' W 118°16'0 0.0
2017-Sep-18 18:56N 33°44' W 118°16'0 0.0
2017-Sep-18 18:27N 33°44' W 118°16'0 0.0
2017-Sep-18 17:50N 33°44' W 118°16'0 0.0
2017-Sep-18 17:30N 33°44' W 118°16'0 0.0
2017-Sep-18 16:58N 33°44' W 118°16'0 0.0
2017-Sep-18 16:24N 33°44' W 118°16'0 0.0
2017-Sep-18 15:10N 33°44' W 118°16'0 0.0
2017-Sep-18 14:59N 33°44' W 118°16'0 0.0
2017-Sep-18 14:27N 33°44' W 118°16'0 0.0
2017-Sep-18 13:49N 33°44' W 118°16'0 0.0
2017-Sep-18 13:23N 33°44' W 118°16'0 0.0
2017-Sep-18 12:50N 33°44' W 118°16'0 0.0
2017-Sep-18 12:27N 33°44' W 118°16'0 0.0
2017-Sep-18 11:38N 33°44' W 118°16'0 0.0
2017-Sep-18 11:15N 33°44' W 118°16'0 0.0
2017-Sep-18 09:42N 33°44' W 118°16'0 0.0
2017-Sep-18 09:14N 33°44' W 118°16'0 0.0
2017-Sep-18 08:47N 33°44' W 118°16'0 0.0
2017-Sep-18 08:26N 33°44' W 118°16'0 0.0
2017-Sep-18 07:46N 33°44' W 118°16'0 0.0
2017-Sep-18 07:30N 33°44' W 118°16'0 0.0
2017-Sep-18 06:57N 33°44' W 118°16'0 0.0
2017-Sep-18 06:30N 33°44' W 118°16'0 0.1
2017-Sep-18 04:58N 33°44' W 118°17'2 3.9
2017-Sep-18 04:29N 33°46' W 118°16'0 0.0
2017-Sep-18 04:00N 33°46' W 118°16'0 0.0
2017-Sep-18 03:29N 33°46' W 118°16'0 0.0
2017-Sep-18 02:49N 33°46' W 118°16'0 0.0
2017-Sep-18 02:25N 33°46' W 118°16'0 0.0
2017-Sep-18 02:00N 33°46' W 118°16'0 0.0
2017-Sep-18 01:21N 33°46' W 118°16'0 0.0
2017-Sep-18 00:57N 33°46' W 118°16'0 0.0
2017-Sep-18 00:28N 33°46' W 118°16'0 0.0
2017-Sep-17 23:56N 33°46' W 118°16'0 0.0
2017-Sep-17 23:29N 33°46' W 118°16'0 0.0
2017-Sep-17 22:59N 33°46' W 118°16'0 0.0
2017-Sep-17 22:30N 33°46' W 118°16'0 0.0
2017-Sep-17 21:58N 33°46' W 118°16'0 0.0
2017-Sep-17 21:29N 33°46' W 118°16'0 0.0
2017-Sep-17 21:00N 33°46' W 118°16'0 0.0
2017-Sep-17 20:28N 33°46' W 118°16'0 0.0
2017-Sep-17 19:58N 33°46' W 118°16'0 0.0
2017-Sep-17 19:22N 33°46' W 118°16'0 0.0
2017-Sep-17 18:58N 33°46' W 118°16'0 0.0
2017-Sep-17 18:27N 33°46' W 118°16'0 0.0
2017-Sep-17 17:59N 33°46' W 118°16'0 0.0
2017-Sep-17 17:24N 33°46' W 118°16'0 0.0
2017-Sep-17 16:52N 33°46' W 118°16'0 0.0
2017-Sep-17 15:43N 33°46' W 118°16'0 0.0
2017-Sep-17 14:39N 33°46' W 118°16'0 0.0
2017-Sep-17 14:10N 33°46' W 118°16'0 0.0
2017-Sep-17 12:01N 33°46' W 118°16'0 0.0
2017-Sep-17 11:42N 33°46' W 118°16'0 0.0
2017-Sep-17 11:26N 33°46' W 118°16'0 0.0
2017-Sep-17 10:20N 33°46' W 118°16'0 0.0
2017-Sep-17 09:55N 33°46' W 118°16'0 0.0
2017-Sep-17 09:29N 33°46' W 118°16'0 0.0
2017-Sep-17 08:06N 33°46' W 118°16'0 0.0
2017-Sep-17 07:57N 33°46' W 118°16'0 0.0
2017-Sep-17 07:24N 33°46' W 118°16'0 0.0
2017-Sep-17 06:23N 33°46' W 118°16'0 0.0
2017-Sep-17 05:04N 33°46' W 118°16'0 0.0
2017-Sep-17 04:56N 33°46' W 118°16'0 0.0
2017-Sep-17 04:19N 33°46' W 118°16'0 0.0
2017-Sep-17 03:59N 33°46' W 118°16'0 0.0
2017-Sep-17 03:26N 33°46' W 118°16'0 0.0
2017-Sep-17 02:59N 33°46' W 118°16'0 0.0
2017-Sep-17 02:30N 33°46' W 118°16'0 0.0
2017-Sep-17 01:58N 33°46' W 118°16'0 0.0
2017-Sep-17 01:30N 33°46' W 118°16'0 0.0
2017-Sep-17 00:58N 33°46' W 118°16'0 0.0
2017-Sep-17 00:25N 33°46' W 118°16'0 0.0
2017-Sep-16 23:55N 33°46' W 118°16'0 0.0
2017-Sep-16 23:30N 33°46' W 118°16'0 0.0
2017-Sep-16 23:00N 33°46' W 118°16'0 0.0
2017-Sep-16 22:26N 33°46' W 118°16'0 0.0
2017-Sep-16 21:59N 33°46' W 118°16'0 0.0
2017-Sep-16 21:30N 33°46' W 118°16'0 0.0
2017-Sep-16 21:00N 33°46' W 118°16'0 0.0
2017-Sep-16 20:30N 33°46' W 118°16'0 0.0
2017-Sep-16 20:00N 33°46' W 118°16'0 0.0
2017-Sep-16 19:30N 33°46' W 118°16'0 0.0
2017-Sep-16 19:00N 33°46' W 118°16'0 0.0
2017-Sep-16 18:27N 33°46' W 118°16'0 0.0
2017-Sep-16 17:59N 33°46' W 118°16'0 0.0
2017-Sep-16 17:19N 33°46' W 118°16'0 0.0
2017-Sep-16 16:58N 33°46' W 118°16'0 0.0
2017-Sep-16 16:13N 33°46' W 118°16'0 0.0
2017-Sep-16 15:52N 33°46' W 118°16'0 0.0
2017-Sep-16 15:24N 33°46' W 118°16'0 0.0
2017-Sep-16 13:59N 33°46' W 118°16'0 0.0
2017-Sep-16 13:29N 33°46' W 118°16'0 0.0
2017-Sep-16 12:52N 33°46' W 118°16'0 0.0
2017-Sep-16 12:16N 33°46' W 118°16'0 0.0
2017-Sep-16 11:50N 33°46' W 118°16'0 0.0
2017-Sep-16 11:18N 33°46' W 118°16'0 0.0
2017-Sep-16 10:26N 33°46' W 118°16'0 0.0
2017-Sep-16 09:55N 33°46' W 118°16'0 0.0
2017-Sep-16 09:29N 33°46' W 118°16'0 0.0
2017-Sep-16 08:56N 33°46' W 118°16'0 0.0
2017-Sep-16 08:16N 33°46' W 118°16'0 0.0
2017-Sep-16 07:57N 33°46' W 118°16'0 0.0
2017-Sep-16 07:26N 33°46' W 118°16'0 0.0
2017-Sep-16 06:59N 33°46' W 118°16'0 0.0
2017-Sep-16 06:24N 33°46' W 118°16'0 0.0
2017-Sep-16 05:59N 33°46' W 118°16'0 0.0
2017-Sep-16 05:29N 33°46' W 118°16'0 0.0
2017-Sep-16 04:57N 33°46' W 118°16'0 0.0
2017-Sep-16 04:30N 33°46' W 118°16'0 0.0
2017-Sep-16 04:00N 33°46' W 118°16'0 0.0
2017-Sep-16 03:30N 33°46' W 118°16'0 0.0
2017-Sep-16 02:58N 33°46' W 118°16'0 0.0
2017-Sep-16 02:28N 33°46' W 118°16'0 0.0
2017-Sep-16 02:00N 33°46' W 118°16'0 0.0
2017-Sep-16 01:29N 33°46' W 118°16'0 0.0
2017-Sep-16 00:57N 33°46' W 118°16'0 0.0
2017-Sep-16 00:28N 33°46' W 118°16'0 0.0
2017-Sep-15 23:56N 33°46' W 118°16'0 0.0
2017-Sep-15 23:30N 33°46' W 118°16'0 0.0
2017-Sep-15 22:59N 33°46' W 118°16'0 0.0
2017-Sep-15 22:30N 33°46' W 118°16'0 0.0
2017-Sep-15 21:57N 33°46' W 118°16'0 0.0
2017-Sep-15 21:30N 33°46' W 118°16'0 0.0
2017-Sep-15 21:00N 33°46' W 118°16'0 0.0
2017-Sep-15 20:29N 33°46' W 118°16'0 0.0
2017-Sep-15 19:59N 33°46' W 118°16'0 0.0
2017-Sep-15 19:26N 33°46' W 118°16'0 0.0
2017-Sep-15 18:55N 33°46' W 118°16'0 0.0
2017-Sep-15 18:30N 33°46' W 118°16'0 0.0
2017-Sep-15 17:59N 33°46' W 118°16'0 0.0
2017-Sep-15 17:27N 33°46' W 118°16'0 0.0
2017-Sep-15 16:55N 33°46' W 118°16'0 0.0
2017-Sep-15 16:26N 33°46' W 118°16'0 0.0
2017-Sep-15 15:33N 33°46' W 118°16'0 0.1
2017-Sep-15 15:30N 33°46' W 118°16'0 0.0
2017-Sep-15 14:56N 33°46' W 118°16'0 0.0
2017-Sep-15 14:25N 33°46' W 118°16'0 0.0
2017-Sep-15 13:50N 33°46' W 118°16'0 0.0
2017-Sep-15 13:27N 33°46' W 118°16'0 0.0
2017-Sep-15 12:51N 33°46' W 118°16'0 0.0
2017-Sep-15 12:25N 33°46' W 118°16'0 0.0
2017-Sep-15 11:55N 33°46' W 118°16'0 0.0
2017-Sep-15 11:30N 33°46' W 118°16'0 0.0
2017-Sep-15 10:57N 33°46' W 118°16'0 0.0
2017-Sep-15 10:22N 33°46' W 118°16'0 0.0
2017-Sep-15 09:54N 33°46' W 118°16'0 0.0
2017-Sep-15 09:25N 33°46' W 118°16'0 0.0
2017-Sep-15 09:00N 33°46' W 118°16'0 0.0
2017-Sep-15 08:28N 33°46' W 118°16'0 0.0
2017-Sep-15 07:56N 33°46' W 118°16'0 0.0
2017-Sep-15 07:30N 33°46' W 118°16'0 0.0
2017-Sep-15 06:51N 33°46' W 118°16'0 0.0
2017-Sep-15 06:26N 33°46' W 118°16'0 0.0
2017-Sep-15 06:00N 33°46' W 118°16'0 0.0
2017-Sep-15 05:27N 33°46' W 118°16'0 0.0
2017-Sep-15 05:00N 33°46' W 118°16'0 0.0
2017-Sep-15 04:28N 33°46' W 118°16'0 0.0
2017-Sep-15 04:00N 33°46' W 118°16'0 0.0
2017-Sep-15 03:29N 33°46' W 118°16'0 0.0
2017-Sep-15 02:53N 33°46' W 118°16'0 0.3
2017-Sep-15 02:29N 33°46' W 118°16'1 2.5
2017-Sep-15 01:59N 33°45' W 118°16'1 2.9
2017-Sep-15 01:30N 33°43' W 118°16'0 0.7
2017-Sep-15 00:59N 33°44' W 118°16'0 0.3
2017-Sep-15 00:28N 33°44' W 118°16'0 0.0
2017-Sep-14 23:56N 33°44' W 118°16'0 0.0
2017-Sep-14 23:30N 33°44' W 118°16'0 0.0
2017-Sep-14 22:59N 33°44' W 118°16'0 0.0
2017-Sep-14 22:30N 33°44' W 118°16'0 0.0
2017-Sep-14 21:56N 33°44' W 118°16'0 0.0
2017-Sep-14 21:30N 33°44' W 118°16'0 0.0
2017-Sep-14 20:56N 33°44' W 118°16'0 0.0
2017-Sep-14 20:30N 33°44' W 118°16'0 0.0
2017-Sep-14 19:52N 33°44' W 118°16'0 0.0
2017-Sep-14 19:28N 33°44' W 118°16'0 0.3
2017-Sep-14 18:59N 33°44' W 118°16'0 0.0
2017-Sep-14 18:24N 33°44' W 118°16'0 0.2
2017-Sep-14 18:00N 33°44' W 118°16'1 1.6
2017-Sep-14 17:30N 33°43' W 118°16'2 3.9
2017-Sep-14 17:00N 33°41' W 118°14'20 5.1
2017-Sep-14 12:58N 33°44' W 118°39'4 6.4
2017-Sep-14 12:22N 33°46' W 118°43'2 6.5
2017-Sep-14 12:01N 33°47' W 118°45'15 6.2
2017-Sep-14 09:32N 33°55' W 119°01'1 6.2
2017-Sep-14 09:26N 33°55' W 119°02'2 5.9
2017-Sep-14 09:01N 33°57' W 119°04'3 6.1
2017-Sep-14 08:30N 33°58' W 119°07'3 5.9
2017-Sep-14 08:00N 33°59' W 119°11'3 5.9
2017-Sep-14 07:30N 34°01' W 119°14'3 6.3
2017-Sep-14 07:00N 34°02' W 119°17'3 6.4
2017-Sep-14 06:30N 34°03' W 119°21'3 6.3
2017-Sep-14 06:01N 34°04' W 119°24'3 6.0
2017-Sep-14 05:29N 34°05' W 119°28'4 6.1
2017-Sep-14 04:51N 34°06' W 119°33'2 6.5
2017-Sep-14 04:31N 34°06' W 119°35'3 6.8
2017-Sep-14 04:00N 34°07' W 119°39'6 6.8
2017-Sep-14 03:07N 34°09' W 119°46'1 7.0
2017-Sep-14 02:56N 34°09' W 119°48'3 6.9
2017-Sep-14 02:30N 34°10' W 119°51'4 7.4
2017-Sep-14 01:56N 34°11' W 119°56'3 7.8
2017-Sep-14 01:30N 34°12' W 119°60'4 7.6
2017-Sep-14 01:00N 34°13' W 120°04'4 7.3
2017-Sep-14 00:30N 34°14' W 120°09'4 7.0
2017-Sep-14 00:00N 34°15' W 120°13'3 7.0
2017-Sep-13 23:31N 34°16' W 120°17'3 6.9
2017-Sep-13 23:00N 34°17' W 120°21'3 6.8
2017-Sep-13 22:30N 34°18' W 120°25'3 6.9
2017-Sep-13 22:01N 34°19' W 120°29'4 7.3
2017-Sep-13 21:28N 34°20' W 120°33'3 7.5
2017-Sep-13 21:01N 34°21' W 120°37'4 7.2
2017-Sep-13 20:31N 34°22' W 120°42'3 6.9
2017-Sep-13 20:00N 34°23' W 120°46'3 7.0
2017-Sep-13 19:31N 34°23' W 120°50'3 6.7
2017-Sep-13 19:00N 34°25' W 120°54'3 7.0
2017-Sep-13 18:31N 34°27' W 120°57'4 7.2
2017-Sep-13 18:00N 34°29' W 121°01'4 7.3
2017-Sep-13 17:31N 34°31' W 121°04'4 7.4
2017-Sep-13 17:00N 34°34' W 121°07'4 7.3
2017-Sep-13 16:31N 34°36' W 121°10'4 7.3
2017-Sep-13 16:00N 34°39' W 121°14'3 6.7
2017-Sep-13 15:31N 34°41' W 121°17'3 6.9
2017-Sep-13 15:00N 34°43' W 121°20'3 6.7
2017-Sep-13 14:30N 34°46' W 121°23'10 6.5
2017-Sep-13 12:57N 34°54' W 121°29'3 6.4
2017-Sep-13 12:31N 34°57' W 121°31'13 6.3
2017-Sep-13 10:28N 35°08' W 121°39'6 6.5
2017-Sep-13 09:31N 35°13' W 121°43'0 6.8
2017-Sep-13 09:29N 35°13' W 121°43'40 6.9
2017-Sep-13 03:39N 35°47' W 122°09'1 7.8
2017-Sep-13 03:30N 35°48' W 122°10'5 7.7
2017-Sep-13 02:48N 35°53' W 122°14'3 7.5
2017-Sep-13 02:27N 35°55' W 122°16'3 7.3
2017-Sep-13 02:00N 35°57' W 122°18'4 7.3
2017-Sep-13 01:30N 36°01' W 122°20'4 7.2
2017-Sep-13 01:00N 36°04' W 122°22'4 7.0
2017-Sep-13 00:31N 36°07' W 122°25'3 6.9
2017-Sep-13 00:01N 36°09' W 122°27'3 6.8
2017-Sep-12 23:30N 36°12' W 122°30'3 7.0
2017-Sep-12 23:01N 36°15' W 122°32'4 6.8
2017-Sep-12 22:25N 36°19' W 122°35'13 6.9
2017-Sep-12 20:33N 36°29' W 122°44'1 7.0
2017-Sep-12 20:26N 36°30' W 122°44'3 6.9
2017-Sep-12 20:00N 36°32' W 122°46'4 6.8
2017-Sep-12 19:29N 36°35' W 122°49'3 6.6
2017-Sep-12 19:01N 36°38' W 122°51'3 6.3
2017-Sep-12 18:31N 36°40' W 122°53'3 6.3
2017-Sep-12 18:00N 36°43' W 122°55'3 6.5
2017-Sep-12 17:30N 36°46' W 122°57'3 6.7
2017-Sep-12 17:00N 36°49' W 122°60'4 6.7
2017-Sep-12 16:28N 36°51' W 123°02'3 6.8
2017-Sep-12 16:01N 36°54' W 123°05'22 7.1
2017-Sep-12 12:57N 37°12' W 123°20'33 6.5
2017-Sep-12 07:53N 37°39' W 123°43'3 6.7
2017-Sep-12 07:30N 37°41' W 123°45'3 6.7
2017-Sep-12 07:01N 37°44' W 123°47'3 6.7
2017-Sep-12 06:30N 37°47' W 123°49'3 6.5
2017-Sep-12 05:58N 37°51' W 123°50'3 6.4
2017-Sep-12 05:31N 37°53' W 123°52'3 6.6
2017-Sep-12 05:00N 37°56' W 123°54'3 6.8
2017-Sep-12 04:30N 37°59' W 123°55'4 7.3
2017-Sep-12 04:00N 38°03' W 123°57'4 7.0
2017-Sep-12 03:22N 38°07' W 123°58'2 7.0
2017-Sep-12 03:00N 38°10' W 123°59'14 7.2
2017-Sep-12 01:04N 38°23' W 124°04'1 7.1
2017-Sep-12 01:00N 38°23' W 124°04'5 7.1
2017-Sep-12 00:22N 38°28' W 124°06'3 7.0
2017-Sep-12 00:00N 38°30' W 124°07'  

Dump ship's entire track history